Notice: Undefined index: language in /var/www/vam/vam/index.php on line 25
Air Côte d'Ivoire Virtuel

 METAR AND TAF INFORMATION
METAR FOR GMAD
ADDS - METARS form results

(0109 UTC 23 March 2019)
Data provider http://aviationweather.gov/metar/data/
 
METAR text: GMAD 230100Z 11005KT CAVOK 12/04 Q1014 NOSIG
Conditions at: GMAD (AL MASSIRA MC , MA) observed 0100 UTC 23 March 2019
Temperature: 12.0°C (54°F)
Dewpoint: 4.0°C (39°F) [RH = 58%]
Pressure (altimeter): 29.94 inches Hg (1014.0 mb)
Winds: from the ESE (110 degrees) at 6 MPH (5 knots; 2.6 m/s)
Visibility: 6 or more miles (10+ km)
Ceiling: ceiling and visibility are OK
Clouds: unknown
Weather: no significant weather observed at this time

METAR text: GMAD 230030Z 10004KT CAVOK 13/05 Q1014 NOSIG
Conditions at: GMAD (AL MASSIRA MC , MA) observed 0030 UTC 23 March 2019
Temperature: 13.0°C (55°F)
Dewpoint: 5.0°C (41°F) [RH = 58%]
Pressure (altimeter): 29.94 inches Hg (1014.0 mb)
Winds: from the E (100 degrees) at 5 MPH (4 knots; 2.1 m/s)
Visibility: 6 or more miles (10+ km)
Ceiling: ceiling and visibility are OK
Clouds: unknown
Weather: no significant weather observed at this time

Forecast for: GMAD (AL MASSIRA MC , MA)
Text: TAF GMAD 222300Z 2300/2406 12014KT 8000 NSC
Forecast period: 0000 UTC 23 March 2019 to 0600 UTC 24 March 2019
Forecast type: FROM: standard forecast or significant change
Winds: from the ESE (120 degrees) at 16 MPH (14 knots; 7.2 m/s)
Visibility: 5 miles (8 km)
Ceiling: unknown
Clouds: missing
Weather: no significant weather forecast for this period

 AIRPORT MAP

 RUNWAY INFORMATION
Runway 10 Runway length 10499 ft Runway width 148 ft
Runway elevation 198 ft Runway displaced threshold 0 ft Runway heading 92
Runway 28 Runway length 10499 ft Runway width 148 ft
Runway elevation 254 ft Runway displaced threshold 0 ft Runway heading 272

 AIRPORT FREQUENCIES
Type APP Name AGADIR APP Frequency 120.9 MHZ
Type TWR Name AGADIR TWR Frequency 119.5 MHZ

 AIRPORT NEAR NAVIGATION AIDS
Type VOR-DME Name Agadir Frequency 117200 KHZ
Type NDB Name Agadir Frequency 396 KHZ
Type NDB Name Agadir Frequency 402 KHZ





Site is not affiliated with, endorsed, or sponsored by Air Côte d'Ivoire. Air Côte d'Ivoire logo are registered trademarks of Air Côte d'Ivoire. ©2017 Air Côte d'Ivoire Virtuel. All rights reserved.